Time;durP1;ratioP1;P1;durP2;ratioP2;P2;SDS_P1;SDS_P2;PMS_P1;PMS_P2;Temp;Humidity;BMP_temperature;BMP_pressure;BME280_temperature;BME280_humidity;BME280_pressure;Samples;Min_cycle;Max_cycle;Signal;HPM_P1;HPM_P2
2022/05/30 00:02:18;;;;;;;;;;;;;;;21.66;46.81;101322.16;7286711;19;152718;-55
2022/05/30 00:04:44;;;;;;;;;;;;;;;21.66;46.53;101330.59;7285167;19;154885;-55
2022/05/30 00:07:11;;;;;;;;;;;;;;;21.67;47.36;101325.78;7287858;19;151637;-56
2022/05/30 00:09:38;;;;;;;;;;;;;;;21.66;47.10;101329.78;7287709;19;152493;-56
2022/05/30 00:12:05;;;;;;;;;;;;;;;21.65;47.11;101326.13;7287616;19;153230;-56
2022/05/30 00:14:32;;;;;;;;;;;;;;;21.64;46.91;101332.88;7288705;19;151863;-56
2022/05/30 00:16:58;;;;;;;;;;;;;;;21.63;47.22;101330.34;7287928;19;154658;-55
2022/05/30 00:19:25;;;;;;;;;;;;;;;21.62;47.19;101329.53;7295982;19;153675;-55
2022/05/30 00:21:57;;;;;;;;;;;;;;;21.61;46.80;101336.31;7288267;19;152704;-56
2022/05/30 00:24:24;;;;;;;;;;;;;;;21.60;47.09;101330.97;7287508;19;153327;-54
2022/05/30 00:26:51;;;;;;;;;;;;;;;21.58;47.09;101331.28;7285678;19;152095;-55
2022/05/30 00:29:18;;;;;;;;;;;;;;;21.56;46.89;101329.94;7289072;19;153932;-55
2022/05/30 00:31:46;;;;;;;;;;;;;;;21.57;47.30;101328.78;7288031;19;153623;-55
2022/05/30 00:34:20;;;;;;;;;;;;;;;21.57;47.32;101340.03;7289095;19;152430;-55
2022/05/30 00:36:46;;;;;;;;;;;;;;;21.54;47.13;101341.47;7287495;19;153327;-56
2022/05/30 00:39:13;;;;;;;;;;;;;;;21.54;46.91;101333.03;7295572;19;153539;-55
2022/05/30 00:41:41;;;;;;;;;;;;;;;21.54;47.18;101337.81;7285432;19;153841;-55
2022/05/30 00:44:15;;;;;;;;;;;;;;;21.52;47.04;101340.13;7287479;19;152678;-55
2022/05/30 00:46:41;;;;;;;;;;;;;;;21.52;47.37;101343.78;7287388;19;152191;-55
2022/05/30 00:49:10;;;;;;;;;;;;;;;21.51;47.73;101336.47;7287610;19;152613;-54
2022/05/30 00:52:05;;;;;;;;;;;;;;;21.50;47.18;101334.78;7286664;19;152488;-54
2022/05/30 00:54:51;;;;;;;;;;;;;;;21.48;47.42;101327.81;7288832;19;151636;-55
2022/05/30 00:57:21;;;;;;;;;;;;;;;21.47;47.49;101329.78;7286791;19;154021;-55
2022/05/30 00:59:55;;;;;;;;;;;;;;;21.47;47.40;101324.16;7287158;19;154104;-55
2022/05/30 01:02:23;;;;;;;;;;;;;;;21.46;47.71;101316.88;7291671;19;152696;-55
2022/05/30 01:07:36;;;;;;;;;;;;;;;21.45;47.79;101311.53;7286859;19;153010;-55
2022/05/30 01:10:04;;;;;;;;;;;;;;;21.45;47.99;101314.34;7287392;19;153384;-55
2022/05/30 01:12:41;;;;;;;;;;;;;;;21.44;47.93;101312.72;7285046;19;153859;-55
2022/05/30 01:15:11;;;;;;;;;;;;;;;21.43;48.34;101314.69;7287724;19;151770;-55
2022/05/30 01:17:44;;;;;;;;;;;;;;;21.44;48.38;101310.69;7287642;19;153513;-55
2022/05/30 01:20:20;;;;;;;;;;;;;;;21.44;48.89;101304.28;7284864;19;154440;-54
2022/05/30 01:22:49;;;;;;;;;;;;;;;21.43;48.74;101311.88;7286572;19;151887;-55
2022/05/30 01:25:34;;;;;;;;;;;;;;;21.43;48.52;101306.25;7291671;19;152535;-55
2022/05/30 01:28:10;;;;;;;;;;;;;;;21.42;48.73;101307.38;7285179;19;151700;-54
2022/05/30 01:30:38;;;;;;;;;;;;;;;21.41;48.34;101296.44;7287343;19;155464;-55
2022/05/30 01:33:05;;;;;;;;;;;;;;;21.38;48.94;101289.47;7285049;19;154304;-53
2022/05/30 01:35:32;;;;;;;;;;;;;;;21.38;48.45;101288.63;7287431;19;152234;-55
2022/05/30 01:37:59;;;;;;;;;;;;;;;21.38;48.34;101285.81;7285710;19;153655;-55
2022/05/30 01:40:26;;;;;;;;;;;;;;;21.37;48.80;101276.53;7285944;19;153947;-55
2022/05/30 01:42:53;;;;;;;;;;;;;;;21.37;48.79;101270.91;7286089;19;151723;-55
2022/05/30 01:45:20;;;;;;;;;;;;;;;21.35;48.54;101267.56;7286721;19;154010;-55
2022/05/30 01:47:47;;;;;;;;;;;;;;;21.36;48.29;101259.97;7290763;19;153897;-55
2022/05/30 01:50:13;;;;;;;;;;;;;;;21.33;48.33;101258.63;7284775;19;152883;-56
2022/05/30 01:52:40;;;;;;;;;;;;;;;21.33;48.81;101247.38;7282164;19;155227;-55
2022/05/30 01:55:07;;;;;;;;;;;;;;;21.33;48.70;101240.91;7286209;19;152009;-55
2022/05/30 01:57:34;;;;;;;;;;;;;;;21.32;48.62;101250.47;7286081;19;153134;-55
2022/05/30 02:00:00;;;;;;;;;;;;;;;21.30;48.66;101243.19;7285369;19;154243;-55
2022/05/30 02:02:27;;;;;;;;;;;;;;;21.30;48.54;101248.81;7282331;19;151805;-54
2022/05/30 02:04:56;;;;;;;;;;;;;;;21.28;48.50;101239.03;7287370;19;152779;-55
2022/05/30 02:07:22;;;;;;;;;;;;;;;21.27;48.78;101251.41;7283050;19;153921;-55
2022/05/30 02:09:49;;;;;;;;;;;;;;;21.26;48.54;101247.75;7292167;19;151741;-55
2022/05/30 02:12:16;;;;;;;;;;;;;;;21.27;48.60;101254.22;7285611;19;153223;-55
2022/05/30 02:14:44;;;;;;;;;;;;;;;21.26;48.77;101259.00;7286339;19;151908;-55
2022/05/30 02:17:11;;;;;;;;;;;;;;;21.23;48.67;101256.81;7284978;19;153351;-55
2022/05/30 02:19:40;;;;;;;;;;;;;;;21.22;48.60;101254.28;7283746;19;153303;-56
2022/05/30 02:22:07;;;;;;;;;;;;;;;21.20;48.57;101251.81;7284805;19;152894;-56
2022/05/30 02:24:35;;;;;;;;;;;;;;;21.19;48.72;101241.69;7285900;19;153651;-54
2022/05/30 02:27:02;;;;;;;;;;;;;;;21.19;48.69;101254.91;7282302;19;154440;-54
2022/05/30 02:29:29;;;;;;;;;;;;;;;21.17;48.79;101262.78;7285560;19;152796;-55
2022/05/30 02:32:00;;;;;;;;;;;;;;;21.18;48.60;101261.66;7291570;19;155002;-55
2022/05/30 02:37:12;;;;;;;;;;;;;;;21.17;48.90;101255.22;7284614;19;152754;-55
2022/05/30 02:39:38;;;;;;;;;;;;;;;21.15;49.14;101248.25;7284405;19;153810;-55
2022/05/30 02:42:06;;;;;;;;;;;;;;;21.15;49.26;101243.47;7284830;19;152022;-55
2022/05/30 02:44:32;;;;;;;;;;;;;;;21.19;48.26;101238.06;7285014;19;152530;-55
2022/05/30 02:46:59;;;;;;;;;;;;;;;21.15;48.41;101237.00;7282806;19;154998;-55
2022/05/30 02:49:27;;;;;;;;;;;;;;;21.12;48.69;101240.41;7283465;19;151817;-55
2022/05/30 02:51:59;;;;;;;;;;;;;;;21.10;48.61;101232.25;7286135;19;152981;-56
2022/05/30 02:54:26;;;;;;;;;;;;;;;21.10;48.64;101239.84;7285307;19;152229;-54
2022/05/30 02:56:54;;;;;;;;;;;;;;;21.07;48.92;101230.06;7283996;19;153195;-55
2022/05/30 02:59:21;;;;;;;;;;;;;;;21.08;48.66;101234.53;7283068;19;154376;-55
2022/05/30 03:01:54;;;;;;;;;;;;;;;21.07;48.78;101232.03;7281671;19;152279;-54
2022/05/30 03:04:21;;;;;;;;;;;;;;;21.05;48.97;101231.50;7285260;19;153138;-55
2022/05/30 03:06:48;;;;;;;;;;;;;;;21.05;48.63;101232.34;7289070;19;154101;-55
2022/05/30 03:09:15;;;;;;;;;;;;;;;21.03;48.68;101226.19;7287808;19;152858;-56
2022/05/30 03:11:42;;;;;;;;;;;;;;;21.04;49.12;101232.63;7291274;19;153455;-55
2022/05/30 03:14:09;;;;;;;;;;;;;;;21.03;48.91;101236.59;7298729;19;153341;-55
2022/05/30 03:16:35;;;;;;;;;;;;;;;21.02;48.66;101230.16;7289651;19;154214;-55
2022/05/30 03:19:02;;;;;;;;;;;;;;;21.00;49.08;101229.59;7289192;19;152831;-55
2022/05/30 03:21:29;;;;;;;;;;;;;;;21.00;49.13;101235.22;7288975;19;151501;-55
2022/05/30 03:23:56;;;;;;;;;;;;;;;20.99;48.75;101230.75;7288409;19;153943;-56
2022/05/30 03:26:22;;;;;;;;;;;;;;;20.99;48.61;101232.72;7289838;19;153339;-56
2022/05/30 03:28:49;;;;;;;;;;;;;;;20.98;48.80;101231.06;7287379;19;151916;-54
2022/05/30 03:31:16;;;;;;;;;;;;;;;20.97;48.66;101232.19;7288590;19;153673;-55
2022/05/30 03:33:42;;;;;;;;;;;;;;;20.96;48.73;101227.72;7289618;19;153995;-55
2022/05/30 03:36:14;;;;;;;;;;;;;;;20.97;49.39;101229.38;7294718;19;151531;-55
2022/05/30 03:38:41;;;;;;;;;;;;;;;20.99;48.72;101229.91;7289137;19;154495;-55
2022/05/30 03:41:08;;;;;;;;;;;;;;;20.96;49.01;101230.53;7289914;19;153693;-55
2022/05/30 03:43:35;;;;;;;;;;;;;;;20.95;49.17;101226.88;7289104;19;153358;-55
2022/05/30 03:46:01;;;;;;;;;;;;;;;20.92;49.15;101230.31;7289020;19;153552;-55
2022/05/30 03:48:35;;;;;;;;;;;;;;;20.91;49.17;101220.19;7286707;19;152697;-54
2022/05/30 03:51:07;;;;;;;;;;;;;;;20.91;49.20;101222.16;7289283;19;153976;-55
2022/05/30 03:53:34;;;;;;;;;;;;;;;20.90;49.13;101220.50;7287236;19;153433;-55
2022/05/30 03:56:01;;;;;;;;;;;;;;;20.88;49.57;101215.19;7288624;19;151588;-54
2022/05/30 03:58:30;;;;;;;;;;;;;;;20.88;49.56;101226.44;7296104;19;153467;-55
2022/05/30 04:00:56;;;;;;;;;;;;;;;20.86;49.42;101223.91;7290244;19;151894;-54
2022/05/30 04:03:23;;;;;;;;;;;;;;;20.84;49.21;101220.59;7290069;19;152985;-55
2022/05/30 04:05:50;;;;;;;;;;;;;;;20.85;49.65;101221.41;7288133;19;154122;-55
2022/05/30 04:08:26;;;;;;;;;;;;;;;20.84;49.51;101217.78;7286819;19;151874;-54
2022/05/30 04:11:04;;;;;;;;;;;;;;;20.85;49.50;101210.16;7288967;19;152499;-55
2022/05/30 04:13:30;;;;;;;;;;;;;;;20.84;49.34;101214.13;7288706;19;154073;-55
2022/05/30 04:16:11;;;;;;;;;;;;;;;20.82;49.66;101214.44;7288811;19;152103;-55
2022/05/30 04:18:38;;;;;;;;;;;;;;;20.81;49.52;101215.56;7289981;19;153741;-55
2022/05/30 04:21:07;;;;;;;;;;;;;;;20.82;49.73;101216.41;7294669;19;154139;-55
2022/05/30 04:23:33;;;;;;;;;;;;;;;20.81;49.52;101218.38;7286539;19;153220;-55
2022/05/30 04:26:02;;;;;;;;;;;;;;;20.79;49.51;101211.41;7287753;19;153092;-55
2022/05/30 04:28:34;;;;;;;;;;;;;;;20.79;49.51;101206.63;7284206;19;151714;-54
2022/05/30 04:31:19;;;;;;;;;;;;;;;20.78;49.82;101210.56;7288779;19;153696;-55
2022/05/30 04:33:46;;;;;;;;;;;;;;;20.81;49.95;101201.53;7287058;19;153643;-55
2022/05/30 04:36:13;;;;;;;;;;;;;;;20.80;49.75;101193.44;7288098;19;151755;-55
2022/05/30 04:38:41;;;;;;;;;;;;;;;20.78;49.60;101195.69;7288507;19;153088;-56
2022/05/30 04:41:08;;;;;;;;;;;;;;;20.77;49.98;101197.66;7286730;19;154356;-55
2022/05/30 04:43:35;;;;;;;;;;;;;;;20.76;49.89;101192.34;7295472;19;153785;-54
2022/05/30 04:46:04;;;;;;;;;;;;;;;20.76;49.96;101197.94;7288111;19;153975;-55
2022/05/30 04:48:34;;;;;;;;;;;;;;;20.73;49.82;101196.59;7287921;19;151520;-56
2022/05/30 04:51:00;;;;;;;;;;;;;;;20.73;50.00;101190.97;7287493;19;154992;-55
2022/05/30 04:53:27;;;;;;;;;;;;;;;20.72;49.83;101194.09;7285194;19;157873;-54
2022/05/30 04:55:54;;;;;;;;;;;;;;;20.73;49.82;101190.97;7287301;19;152623;-55
2022/05/30 04:58:36;;;;;;;;;;;;;;;20.71;50.25;101193.28;7288753;19;152720;-53
2022/05/30 05:01:07;;;;;;;;;;;;;;;20.72;49.98;101183.69;7286327;19;152443;-55
2022/05/30 05:03:37;;;;;;;;;;;;;;;20.73;50.21;101179.75;7294239;19;152145;-54
2022/05/30 05:06:07;;;;;;;;;;;;;;;20.72;50.04;101180.03;7287067;19;153926;-56
2022/05/30 05:08:37;;;;;;;;;;;;;;;20.73;50.12;101187.34;7285565;19;155009;-55
2022/05/30 05:11:09;;;;;;;;;;;;;;;20.70;50.27;101185.16;7288207;19;153342;-55
2022/05/30 05:13:36;;;;;;;;;;;;;;;20.70;50.65;101186.00;7285694;19;153046;-55
2022/05/30 05:16:06;;;;;;;;;;;;;;;20.70;50.51;101187.97;7287544;19;151784;-54
2022/05/30 05:18:38;;;;;;;;;;;;;;;20.68;50.49;101185.44;7286805;19;153643;-55
2022/05/30 05:21:05;;;;;;;;;;;;;;;20.69;50.43;101189.09;7285985;19;153282;-55
2022/05/30 05:23:31;;;;;;;;;;;;;;;20.74;50.57;101186.22;7287627;19;151683;-54
2022/05/30 05:26:01;;;;;;;;;;;;;;;20.76;50.85;101181.94;7292563;19;152742;-55
2022/05/30 05:28:33;;;;;;;;;;;;;;;20.80;50.50;101173.78;7285011;19;151739;-55
2022/05/30 05:31:00;;;;;;;;;;;;;;;20.83;50.39;101173.16;7286012;19;153792;-55
2022/05/30 05:33:27;;;;;;;;;;;;;;;20.89;51.01;101179.53;7286445;19;153665;-55
2022/05/30 05:35:53;;;;;;;;;;;;;;;20.95;50.70;101178.28;7286948;19;152362;-55
2022/05/30 05:38:29;;;;;;;;;;;;;;;21.01;51.64;101175.09;7285365;19;153118;-55
2022/05/30 05:41:06;;;;;;;;;;;;;;;21.09;51.38;101179.19;7285299;19;154418;-54
2022/05/30 05:43:33;;;;;;;;;;;;;;;21.16;51.81;101179.66;7286082;19;152049;-55
2022/05/30 05:46:00;;;;;;;;;;;;;;;21.23;51.75;101185.72;7285891;19;153278;-56
2022/05/30 05:48:32;;;;;;;;;;;;;;;21.32;51.04;101177.41;7291536;19;153341;-56
2022/05/30 05:51:03;;;;;;;;;;;;;;;21.41;50.95;101181.19;7284079;19;153751;-55
2022/05/30 05:53:30;;;;;;;;;;;;;;;21.47;50.76;101172.34;7285175;19;153126;-55
2022/05/30 05:55:56;;;;;;;;;;;;;;;21.55;50.19;101177.25;7287147;19;151932;-55
2022/05/30 05:58:35;;;;;;;;;;;;;;;21.61;50.13;101178.00;7285764;19;153330;-55
2022/05/30 06:01:10;;;;;;;;;;;;;;;21.69;49.82;101178.13;7282815;19;153449;-55
2022/05/30 06:03:37;;;;;;;;;;;;;;;21.76;49.96;101166.44;7286027;19;152075;-56
2022/05/30 06:06:04;;;;;;;;;;;;;;;21.83;49.71;101174.47;7283022;19;152688;-55
2022/05/30 06:08:32;;;;;;;;;;;;;;;21.91;49.78;101170.94;7284421;19;154037;-56
2022/05/30 06:11:05;;;;;;;;;;;;;;;21.98;49.38;101168.59;7291576;19;152896;-54
2022/05/30 06:13:33;;;;;;;;;;;;;;;22.03;49.66;101162.84;7284022;19;152943;-56
2022/05/30 06:16:00;;;;;;;;;;;;;;;22.08;49.21;101168.34;7285614;19;152340;-56
2022/05/30 06:18:36;;;;;;;;;;;;;;;22.14;49.09;101165.13;7285776;19;153684;-55
2022/05/30 06:21:03;;;;;;;;;;;;;;;22.21;49.01;101173.16;7284348;19;154125;-55
2022/05/30 06:23:30;;;;;;;;;;;;;;;22.27;48.99;101169.06;7284778;19;154669;-56
2022/05/30 06:25:59;;;;;;;;;;;;;;;22.33;48.87;101169.78;7286363;19;153502;-55
2022/05/30 06:28:31;;;;;;;;;;;;;;;22.37;48.19;101173.63;7282595;19;153569;-55
2022/05/30 06:30:58;;;;;;;;;;;;;;;22.45;48.27;101170.06;7285534;19;151571;-55
2022/05/30 06:33:25;;;;;;;;;;;;;;;22.50;48.19;101170.78;7288269;19;153479;-55
2022/05/30 06:35:52;;;;;;;;;;;;;;;22.54;48.21;101171.00;7283503;19;151953;-56
2022/05/30 06:38:27;;;;;;;;;;;;;;;22.57;47.92;101165.59;7286725;19;152653;-55
2022/05/30 06:41:16;;;;;;;;;;;;;;;22.61;47.56;101172.25;7282586;19;153672;-55
2022/05/30 06:43:53;;;;;;;;;;;;;;;22.66;47.13;101167.63;7285638;19;152342;-55
2022/05/30 06:46:20;;;;;;;;;;;;;;;22.68;47.55;101163.34;7284540;19;152676;-54
2022/05/30 06:48:48;;;;;;;;;;;;;;;22.69;47.06;101159.38;7282941;19;154718;-56
2022/05/30 06:51:17;;;;;;;;;;;;;;;22.71;47.50;101165.56;7285534;19;151892;-54
2022/05/30 06:53:44;;;;;;;;;;;;;;;22.73;47.23;101168.06;7284680;19;152694;-56
2022/05/30 06:56:15;;;;;;;;;;;;;;;22.75;47.25;101166.59;7290119;19;152033;-54
2022/05/30 06:58:43;;;;;;;;;;;;;;;22.76;47.09;101164.63;7284344;19;152875;-55
2022/05/30 07:01:10;;;;;;;;;;;;;;;22.77;47.38;101166.25;7282368;19;154208;-55
2022/05/30 07:03:37;;;;;;;;;;;;;;;22.78;47.17;101165.94;7283357;19;151823;-55
2022/05/30 07:06:08;;;;;;;;;;;;;;;22.78;47.13;101165.94;7284157;19;153432;-55
2022/05/30 07:08:36;;;;;;;;;;;;;;;22.78;47.12;101171.59;7281586;19;153135;-55
2022/05/30 07:11:02;;;;;;;;;;;;;;;22.79;47.46;101170.44;7284015;19;152332;-54
2022/05/30 07:13:29;;;;;;;;;;;;;;;22.79;47.41;101170.44;7283969;19;151783;-55
2022/05/30 07:15:56;;;;;;;;;;;;;;;22.79;47.12;101172.41;7289477;19;153288;-56
2022/05/30 07:18:34;;;;;;;;;;;;;;;22.78;47.15;101171.59;7285277;19;153502;-55
2022/05/30 07:21:03;;;;;;;;;;;;;;;22.79;47.13;101176.06;7281556;19;153820;-55
2022/05/30 07:23:31;;;;;;;;;;;;;;;22.79;46.95;101172.41;7283360;19;153031;-55
2022/05/30 07:25:59;;;;;;;;;;;;;;;22.80;46.86;101168.47;7282912;19;152906;-55
2022/05/30 07:28:30;;;;;;;;;;;;;;;22.78;46.88;101170.75;7283428;19;154762;-54
2022/05/30 07:31:04;;;;;;;;;;;;;;;22.77;46.91;101171.91;7282961;19;152208;-55
2022/05/30 07:33:31;;;;;;;;;;;;;;;22.77;46.65;101166.25;7283145;19;153766;-55
2022/05/30 07:35:58;;;;;;;;;;;;;;;22.76;46.45;101170.25;7281447;19;153362;-55
2022/05/30 07:38:34;;;;;;;;;;;;;;;22.75;46.29;101165.75;7291548;19;152073;-56
2022/05/30 07:41:03;;;;;;;;;;;;;;;22.74;46.64;101170.56;7282032;19;153451;-55
2022/05/30 07:43:30;;;;;;;;;;;;;;;22.72;46.27;101172.84;7284555;19;152046;-55
2022/05/30 07:46:00;;;;;;;;;;;;;;;22.71;46.64;101170.38;7282260;19;153336;-55
2022/05/30 07:48:35;;;;;;;;;;;;;;;22.70;46.46;101175.16;7279630;19;153275;-55
2022/05/30 07:51:07;;;;;;;;;;;;;;;22.69;46.26;101169.81;7284368;19;152090;-55
2022/05/30 07:53:34;;;;;;;;;;;;;;;22.66;46.26;101162.00;7288839;19;155089;-54
2022/05/30 07:56:06;;;;;;;;;;;;;;;22.66;46.58;101159.19;7289037;19;153823;-54
2022/05/30 07:58:34;;;;;;;;;;;;;;;22.62;46.38;101165.44;7289839;19;151869;-56
2022/05/30 08:01:01;;;;;;;;;;;;;;;22.61;46.39;101160.97;7294231;19;153407;-55
2022/05/30 08:03:27;;;;;;;;;;;;;;;22.58;46.21;101160.75;7288736;19;152363;-57
2022/05/30 08:06:04;;;;;;;;;;;;;;;22.56;46.63;101166.72;7290298;19;153209;-56
2022/05/30 08:08:39;;;;;;;;;;;;;;;22.56;46.62;101165.88;7287163;19;153923;-56
2022/05/30 08:11:05;;;;;;;;;;;;;;;22.53;46.80;101161.69;7287900;19;151697;-55
2022/05/30 08:13:32;;;;;;;;;;;;;;;22.51;46.93;101164.03;7289218;19;152610;-55
2022/05/30 08:15:59;;;;;;;;;;;;;;;22.49;46.84;101166.31;7288667;19;153510;-55
2022/05/30 08:18:33;;;;;;;;;;;;;;;22.48;47.08;101167.47;7289694;19;152311;-56
2022/05/30 08:21:00;;;;;;;;;;;;;;;22.47;47.01;101159.34;7288692;19;153441;-55
2022/05/30 08:23:27;;;;;;;;;;;;;;;22.46;46.97;101158.50;7295230;19;153989;-55
2022/05/30 08:25:54;;;;;;;;;;;;;;;22.45;47.37;101168.09;7289713;19;152667;-56
2022/05/30 08:28:31;;;;;;;;;;;;;;;22.45;47.17;101167.25;7285572;19;153782;-56
2022/05/30 08:31:04;;;;;;;;;;;;;;;22.11;39.64;101165.75;7286810;19;152212;-55
2022/05/30 08:33:31;;;;;;;;;;;;;;;21.84;38.26;101171.38;7287322;19;153636;-54
2022/05/30 08:36:00;;;;;;;;;;;;;;;21.70;38.85;101173.31;7288051;19;153304;-54
2022/05/30 08:38:36;;;;;;;;;;;;;;;21.89;39.53;101167.63;7289029;19;152177;-55
2022/05/30 08:43:50;;;;;;;;;;;;;;;21.84;40.92;101171.38;7288805;19;153470;-55
2022/05/30 08:46:23;;;;;;;;;;;;;;;21.80;40.54;101164.69;7295561;19;151674;-54
2022/05/30 08:49:10;;;;;;;;;;;;;;;21.78;40.07;101163.31;7287421;19;154367;-54
2022/05/30 08:51:42;;;;;;;;;;;;;;;21.71;40.42;101175.00;7289445;19;152003;-54
2022/05/30 08:54:08;;;;;;;;;;;;;;;21.69;40.50;101168.84;7289043;19;152658;-55
2022/05/30 08:56:39;;;;;;;;;;;;;;;21.44;38.31;101164.53;7284856;19;153819;-55
2022/05/30 08:59:05;;;;;;;;;;;;;;;21.33;40.35;101170.66;7288874;19;153678;-54
2022/05/30 09:01:43;;;;;;;;;;;;;;;21.51;40.49;101158.50;7286945;19;153349;-61
2022/05/30 09:04:19;;;;;;;;;;;;;;;21.50;41.48;101160.47;7284934;19;153510;-54
2022/05/30 09:06:53;;;;;;;;;;;;;;;21.58;40.98;101156.09;7293718;19;151875;-55
2022/05/30 09:09:22;;;;;;;;;;;;;;;21.54;41.57;101161.53;7286336;19;153212;-56
2022/05/30 09:12:09;;;;;;;;;;;;;;;21.51;41.71;101152.88;7288203;19;152076;-55
2022/05/30 09:14:39;;;;;;;;;;;;;;;21.50;42.30;101148.41;7286757;19;152602;-55
2022/05/30 09:17:10;;;;;;;;;;;;;;;21.46;42.26;101152.97;7285585;19;154225;-54
2022/05/30 09:19:37;;;;;;;;;;;;;;;21.48;41.96;101153.50;7286378;19;151850;-56
2022/05/30 09:22:07;;;;;;;;;;;;;;;21.45;41.64;101146.50;7285587;19;153581;-55
2022/05/30 09:24:34;;;;;;;;;;;;;;;21.49;41.66;101141.09;7286248;19;153233;-55
2022/05/30 09:27:02;;;;;;;;;;;;;;;21.43;42.06;101148.81;7285551;19;151835;-56
2022/05/30 09:29:33;;;;;;;;;;;;;;;21.41;42.02;101147.44;7292561;19;153395;-55
2022/05/30 09:32:04;;;;;;;;;;;;;;;21.41;41.99;101134.22;7286249;19;151659;-55
2022/05/30 09:34:35;;;;;;;;;;;;;;;21.50;41.93;101138.00;7286835;19;152691;-58
2022/05/30 09:37:02;;;;;;;;;;;;;;;21.59;42.50;101133.31;7284447;19;153414;-55
2022/05/30 09:39:28;;;;;;;;;;;;;;;21.58;42.51;101136.44;7286431;19;154683;-55
2022/05/30 09:41:56;;;;;;;;;;;;;;;21.55;42.80;101129.47;7258720;19;153182;-56
2022/05/30 09:44:25;;;;;;;;;;;;;;;21.55;42.39;101128.63;7273112;19;153818;-55
2022/05/30 09:46:55;;;;;;;;;;;;;;;21.49;43.01;101124.22;7283591;19;152479;-56
2022/05/30 09:49:23;;;;;;;;;;;;;;;21.42;42.90;101127.47;7283431;19;153536;-55
2022/05/30 09:52:00;;;;;;;;;;;;;;;21.47;43.10;101124.56;7287326;19;152666;-55
2022/05/30 09:54:33;;;;;;;;;;;;;;;21.46;42.97;101127.69;7275601;19;153649;-56
2022/05/30 09:57:05;;;;;;;;;;;;;;;21.45;43.03;101137.25;7273448;19;153465;-56
2022/05/30 09:59:40;;;;;;;;;;;;;;;21.49;42.83;101122.25;7281697;19;152134;-55
2022/05/30 10:02:20;;;;;;;;;;;;;;;21.47;42.63;101118.94;7278620;19;152286;-55
2022/05/30 10:05:04;;;;;;;;;;;;;;;21.50;43.13;101114.66;7280944;19;154808;-55
2022/05/30 10:07:57;;;;;;;;;;;;;;;21.42;43.12;101121.00;7275575;19;152505;-55
2022/05/30 10:10:25;;;;;;;;;;;;;;;21.42;43.06;101115.38;7281279;19;153289;-55
2022/05/30 10:12:58;;;;;;;;;;;;;;;21.44;42.98;101116.72;7281590;19;154267;-55
2022/05/30 10:15:34;;;;;;;;;;;;;;;21.43;43.40;101103.84;7287097;19;152348;-55
2022/05/30 10:18:11;;;;;;;;;;;;;;;21.45;43.17;101107.16;7280839;19;154013;-54
2022/05/30 10:20:41;;;;;;;;;;;;;;;21.45;43.22;101107.16;7281954;19;152996;-55
2022/05/30 10:28:50;;;;;;;;;;;;;;;21.44;43.38;101094.25;7285983;19;151842;-55
2022/05/30 10:31:26;;;;;;;;;;;;;;;21.44;43.50;101099.06;7279581;19;154265;-54
2022/05/30 10:33:56;;;;;;;;;;;;;;;21.43;43.63;101095.41;7280822;19;155939;-55
2022/05/30 10:36:23;;;;;;;;;;;;;;;21.41;43.44;101091.22;7283927;19;151824;-55
2022/05/30 10:39:02;;;;;;;;;;;;;;;21.41;43.43;101094.88;7290764;19;153490;-55
2022/05/30 10:41:29;;;;;;;;;;;;;;;21.41;43.32;101088.41;7282180;19;151779;-55
2022/05/30 10:43:56;;;;;;;;;;;;;;;21.38;42.89;101084.25;7284408;19;153976;-55
2022/05/30 10:46:27;;;;;;;;;;;;;;;21.34;43.28;101080.41;7281957;19;154006;-55
2022/05/30 10:48:59;;;;;;;;;;;;;;;21.33;43.03;101084.34;7282822;19;152374;-54
2022/05/30 10:51:28;;;;;;;;;;;;;;;21.32;43.03;101077.06;7281599;19;155099;-56
2022/05/30 10:54:05;;;;;;;;;;;;;;;21.31;42.97;101072.56;7284768;19;153991;-55
2022/05/30 10:56:35;;;;;;;;;;;;;;;21.29;43.25;101072.06;7282312;19;152156;-55
2022/05/30 10:59:06;;;;;;;;;;;;;;;21.24;43.44;101067.38;7284498;19;152606;-55
2022/05/30 11:01:43;;;;;;;;;;;;;;;21.27;43.29;101074.34;7288161;19;153757;-55
2022/05/30 11:04:15;;;;;;;;;;;;;;;21.23;43.14;101067.69;7280669;19;152685;-55
2022/05/30 11:06:45;;;;;;;;;;;;;;;21.22;43.59;101068.81;7282508;19;155241;-55
2022/05/30 11:09:18;;;;;;;;;;;;;;;21.21;43.45;101076.41;7281899;19;151763;-56
2022/05/30 11:11:46;;;;;;;;;;;;;;;21.27;42.98;101069.56;7279538;19;153848;-55
2022/05/30 11:14:14;;;;;;;;;;;;;;;21.25;43.41;101068.22;7281786;19;153476;-55
2022/05/30 11:16:47;;;;;;;;;;;;;;;21.20;43.13;101060.72;7281792;19;151738;-55
2022/05/30 11:19:21;;;;;;;;;;;;;;;21.19;43.34;101067.47;7281267;19;151869;-55
2022/05/30 11:21:52;;;;;;;;;;;;;;;21.16;43.28;101065.31;7285841;19;153593;-55
2022/05/30 11:24:19;;;;;;;;;;;;;;;21.14;43.46;101061.13;7282440;19;153040;-55
2022/05/30 11:26:47;;;;;;;;;;;;;;;21.13;43.61;101059.44;7284039;19;154518;-54
2022/05/30 11:29:25;;;;;;;;;;;;;;;21.16;42.92;101050.41;7290174;19;152094;-55
2022/05/30 11:32:01;;;;;;;;;;;;;;;21.11;43.18;101050.47;7285097;19;153699;-55
2022/05/30 11:34:39;;;;;;;;;;;;;;;21.12;43.08;101049.34;7289431;19;154066;-54
2022/05/30 11:37:15;;;;;;;;;;;;;;;21.07;43.53;101050.25;7289358;19;151800;-55
2022/05/30 11:39:51;;;;;;;;;;;;;;;21.08;43.38;101056.69;7289963;19;153142;-56
2022/05/30 11:42:20;;;;;;;;;;;;;;;21.16;42.66;101056.88;7284993;19;153289;-56
2022/05/30 11:44:49;;;;;;;;;;;;;;;21.07;43.17;101060.66;7297633;19;151919;-55
2022/05/30 11:47:26;;;;;;;;;;;;;;;21.09;42.67;101073.25;7287086;19;154822;-54
2022/05/30 11:50:02;;;;;;;;;;;;;;;21.08;43.01;101073.53;7287785;19;153521;-56
2022/05/30 11:52:38;;;;;;;;;;;;;;;21.12;42.64;101113.97;7287456;19;153578;-54
2022/05/30 11:55:06;;;;;;;;;;;;;;;21.08;42.28;101110.91;7286597;19;153920;-54
2022/05/30 11:57:43;;;;;;;;;;;;;;;21.11;42.10;101113.13;7289491;19;152049;-55
2022/05/30 12:00:14;;;;;;;;;;;;;;;21.14;42.47;101117.31;7289246;19;153461;-55
2022/05/30 12:02:41;;;;;;;;;;;;;;;21.11;42.49;101123.53;7287021;19;154147;-55
2022/05/30 12:05:23;;;;;;;;;;;;;;;21.11;42.95;101127.16;7285732;19;155474;-54
2022/05/30 12:07:54;;;;;;;;;;;;;;;20.98;43.01;101127.13;7294343;19;154822;-55
2022/05/30 12:10:26;;;;;;;;;;;;;;;21.01;43.09;101138.56;7286380;19;151953;-55
2022/05/30 12:12:55;;;;;;;;;;;;;;;20.91;43.46;101130.31;7287639;19;152819;-55
2022/05/30 12:15:42;;;;;;;;;;;;;;;20.99;43.46;101123.16;7284669;19;154156;-55
2022/05/30 12:24:06;;;;;;;;;;;;;;;20.92;43.49;101128.34;7284513;19;154463;-55
2022/05/30 12:26:42;;;;;;;;;;;;;;;20.93;43.63;101125.25;7285511;19;152491;-55
2022/05/30 12:29:23;;;;;;;;;;;;;;;20.82;43.79;101109.69;7285183;19;152960;-55
2022/05/30 12:32:10;;;;;;;;;;;;;;;20.79;43.81;101110.31;7288155;19;154380;-54
2022/05/30 12:34:48;;;;;;;;;;;;;;;20.80;44.09;101101.56;7286620;19;154061;-55
2022/05/30 12:37:15;;;;;;;;;;;;;;;20.80;44.21;101098.75;7284054;19;154892;-56
2022/05/30 12:39:42;;;;;;;;;;;;;;;20.83;44.22;101103.78;7286034;19;151809;-54
2022/05/30 12:42:29;;;;;;;;;;;;;;;20.87;44.64;101101.19;7282284;19;154183;-56
2022/05/30 12:45:12;;;;;;;;;;;;;;;20.94;44.22;101109.22;7282709;19;154660;-55
2022/05/30 12:47:49;;;;;;;;;;;;;;;21.02;44.36;101108.50;7283822;19;152220;-56
2022/05/30 12:50:39;;;;;;;;;;;;;;;21.09;44.41;101108.94;7284706;19;153650;-55
2022/05/30 12:53:06;;;;;;;;;;;;;;;21.14;44.09;101098.47;7281386;19;153976;-56
2022/05/30 12:55:55;;;;;;;;;;;;;;;21.20;44.21;101100.06;7288004;19;151751;-55
2022/05/30 12:58:40;;;;;;;;;;;;;;;21.28;44.16;101104.13;7281780;19;152358;-56
2022/05/30 13:01:07;;;;;;;;;;;;;;;21.35;43.92;101100.91;7282430;19;152541;-55
2022/05/30 13:03:42;;;;;;;;;;;;;;;21.39;44.11;101100.00;7285462;19;152631;-56
2022/05/30 13:06:15;;;;;;;;;;;;;;;21.43;43.80;101097.38;7282957;19;154216;-55